KLAL/LAL METAR and TAF weather

Enter ICAO airport designator
Station Type Date Time Source
KLAL METAR 2021/08/05 04:35 UTC NOAA

KLAL 050435Z AUTO 17005KT 10SM SCT110 24/23 A3006 RMK AO2 PNO


Station Type Date Time Source
KLAL Decoded METAR 2021/08/05 04:35 UTC NOAA

Lakeland Regional, FL, United States (KLAL) 27-59N 082-01W
Aug 05, 2021 - 12:35 AM EDT / 2021.08.05 0435 UTC
Wind: from the S (170 degrees) at 6 MPH (5 KT):0
Visibility: 10 mile(s):0
Sky conditions: partly cloudy
Temperature: 75 F (24 C)
Dew Point: 73 F (23 C)
Relative Humidity: 94%
Pressure (altimeter): 30.06 in. Hg (1017 hPa)
ob: KLAL 050435Z AUTO 17005KT 10SM SCT110 24/23 A3006 RMK AO2 PNO
cycle: 4

Station Type Date Time Source
KLAL TAF 2021/08/04 18:45 UTC NOAA

TAF KLAL 041743Z 0418/0518 21012KT P6SM VCTS SCT020CB BKN100
TEMPO 0418/0422 VRB15G25KT 2SM TSRA BKN015CB
FM050200 VRB04KT P6SM VCSH SCT025 BKN100
FM051400 19009KT P6SM VCTS SCT025CB BKN050

Example: see airport list